< Typhoon 198521 1985 Season Typhoon 198523 >
Typhoon 198522 (DOT)
General InformationTrack Information on Google MapsDetailed Wind InformationList of All Images || Disaster Info.ResourceGoogle EarthGE AnimationAtom FeedGeoJSON
Detalied Best Track (Time Zone = UTC)
Year Month Day Hour Lat. Long. Pressure (hPa) Wind (kt) Class Image Chart
1985 10 11 12 5.0 155.0 1004 0 2 Image Chart
1985 10 11 18 6.0 153.5 1004 0 2 Image Chart
1985 10 12 00 6.5 152.0 1006 0 2 Image Chart
1985 10 12 06 7.0 151.0 1006 0 2 Image Chart
1985 10 12 12 8.0 150.5 1006 0 2 Image Chart
1985 10 12 18 9.0 150.0 1004 0 2 Image Chart
1985 10 13 00 10.0 149.0 1004 0 2 Image Chart
1985 10 13 06 11.0 147.0 1000 0 2 Image Chart
1985 10 13 12 11.3 145.0 1000 0 2 Image Chart
1985 10 13 18 11.5 143.5 1000 35 3 Image Chart
1985 10 14 00 11.6 142.2 992 45 3 Image Chart
1985 10 14 06 11.8 141.1 990 45 3 Image Chart
1985 10 14 12 12.2 140.1 985 50 4 Image Chart
1985 10 14 18 12.9 139.1 980 60 4 Image Chart
1985 10 15 00 13.1 137.8 970 70 5 Image Chart
1985 10 15 06 13.4 136.7 950 85 5 Image Chart
1985 10 15 12 13.6 135.7 940 85 5 Image Chart
1985 10 15 18 13.8 134.9 920 90 5 Image Chart
1985 10 16 00 14.1 133.7 905 100 5 Image Chart
1985 10 16 06 14.4 132.7 905 110 5 Image Chart
1985 10 16 12 14.6 131.2 895 120 5 Image Chart
1985 10 16 18 14.7 129.9 895 120 5 Image Chart
1985 10 17 00 14.7 128.5 895 120 5 Image Chart
1985 10 17 06 14.6 127.3 900 120 5 Image Chart
1985 10 17 12 14.3 126.3 910 110 5 Image Chart
1985 10 17 18 14.3 125.3 910 110 5 Image Chart
1985 10 18 00 14.4 124.3 915 80 5 Image Chart
1985 10 18 06 14.6 123.3 925 90 5 Image Chart
1985 10 18 12 15.0 122.4 925 90 5 Image Chart
1985 10 18 18 15.5 120.8 980 90 5 Image Chart
1985 10 19 00 15.6 119.5 980 80 5 Image Chart
1985 10 19 06 15.8 118.6 980 80 5 Image Chart
1985 10 19 12 16.2 117.6 980 60 4 Image Chart
1985 10 19 18 16.5 116.6 975 60 4 Image Chart
1985 10 20 00 17.0 115.8 965 65 5 Image Chart
1985 10 20 06 17.2 114.1 965 70 5 Image Chart
1985 10 20 12 17.7 112.9 960 75 5 Image Chart
1985 10 20 18 18.1 111.2 960 75 5 Image Chart
1985 10 21 00 18.7 109.0 980 60 4 Image Chart
1985 10 21 06 18.6 107.5 980 60 4 Image Chart
1985 10 21 12 18.7 106.0 990 45 3 Image Chart
1985 10 21 18 18.8 105.0 1000 35 3 Image Chart
1985 10 22 00 19.0 103.0 1008 0 2 Image Chart
1985 10 22 06 19.0 102.0 1012 0 2 Image Chart
1985 10 22 12 19.0 99.0 1012 0 2 Image Chart
Japan Meteorological Agency Best Track Data | Correction Date : 1992-10-21
< Typhoon 198521 1985 Season Typhoon 198523 >

Help